createdAt,value
2019-06-10T00:01:34.919Z,99.90
2019-06-10T00:04:08.534Z,99.90
2019-06-10T00:06:34.691Z,99.90
2019-06-10T00:09:06.060Z,99.90
2019-06-10T00:11:33.495Z,99.90
2019-06-10T00:14:02.456Z,99.90
2019-06-10T00:16:30.865Z,99.90
2019-06-10T00:18:58.332Z,99.90
2019-06-10T00:24:28.315Z,99.90
2019-06-10T00:26:55.636Z,99.90
2019-06-10T00:29:23.062Z,99.90
2019-06-10T00:31:51.372Z,99.90
2019-06-10T00:34:20.908Z,99.90
2019-06-10T00:36:50.955Z,99.90
2019-06-10T00:39:18.304Z,99.90
2019-06-10T00:41:45.746Z,99.90
2019-06-10T00:44:13.132Z,99.90
2019-06-10T00:46:40.811Z,99.90
2019-06-10T00:49:12.546Z,99.90
2019-06-10T00:51:38.126Z,99.90
2019-06-10T00:54:07.023Z,99.90
2019-06-10T00:56:37.672Z,99.90
2019-06-10T00:59:05.848Z,99.90
2019-06-10T01:01:33.464Z,99.90
2019-06-10T01:04:02.927Z,99.90
2019-06-10T01:06:31.808Z,99.90
2019-06-10T01:09:00.642Z,99.90
2019-06-10T01:11:30.859Z,99.90
2019-06-10T01:13:57.541Z,99.90
2019-06-10T01:16:24.870Z,99.90
2019-06-10T01:18:53.611Z,99.90
2019-06-10T01:21:21.876Z,99.90
2019-06-10T01:23:51.167Z,99.90
2019-06-10T01:26:21.333Z,99.90
2019-06-10T01:28:48.166Z,99.90
2019-06-10T01:31:19.152Z,99.90
2019-06-10T01:33:44.891Z,99.90
2019-06-10T01:36:13.390Z,99.90
2019-06-10T01:38:41.534Z,99.90
2019-06-10T01:41:11.117Z,99.90
2019-06-10T01:43:40.668Z,99.90
2019-06-10T01:46:08.730Z,99.90
2019-06-10T01:48:44.123Z,99.90
2019-06-10T01:51:07.145Z,99.90
2019-06-10T01:53:34.847Z,99.90
2019-06-10T01:56:02.493Z,99.90
2019-06-10T01:58:31.549Z,99.90
2019-06-10T02:01:22.820Z,99.90
2019-06-10T02:03:48.277Z,99.90
2019-06-10T02:06:18.332Z,99.90
2019-06-10T02:08:45.188Z,99.90
2019-06-10T02:11:15.495Z,99.90
2019-06-10T02:13:41.912Z,99.90
2019-06-10T02:16:12.217Z,99.90
2019-06-10T02:18:40.966Z,99.90
2019-06-10T02:21:07.866Z,99.90
2019-06-10T02:23:35.148Z,99.90
2019-06-10T02:26:02.516Z,99.90
2019-06-10T02:28:31.657Z,99.90
2019-06-10T02:31:03.880Z,99.90
2019-06-10T02:33:35.901Z,99.90
2019-06-10T02:36:03.926Z,99.90
2019-06-10T02:38:35.400Z,99.90
2019-06-10T02:41:03.649Z,99.90
2019-06-10T02:43:32.417Z,99.90
2019-06-10T02:45:58.631Z,99.90
2019-06-10T02:48:30.253Z,99.90
2019-06-10T02:51:06.253Z,99.90
2019-06-10T02:53:36.433Z,99.90
2019-06-10T02:56:07.127Z,99.90
2019-06-10T02:58:39.094Z,99.90
2019-06-10T03:01:04.641Z,99.90
2019-06-10T03:03:41.082Z,99.90
2019-06-10T03:06:06.555Z,99.90
2019-06-10T03:08:35.295Z,99.90
2019-06-10T03:11:03.791Z,99.90
2019-06-10T03:13:33.159Z,99.90
2019-06-10T03:16:09.171Z,99.90
2019-06-10T03:18:36.511Z,99.90
2019-06-10T03:21:03.994Z,99.90
2019-06-10T03:23:32.015Z,99.90
2019-06-10T03:26:03.724Z,99.90
2019-06-10T03:28:32.089Z,99.90
2019-06-10T03:30:59.851Z,99.90
2019-06-10T03:33:34.780Z,99.90
2019-06-10T03:35:56.826Z,99.90
2019-06-10T03:38:27.008Z,99.90
2019-06-10T03:40:54.117Z,99.90
2019-06-10T03:43:23.808Z,99.90
2019-06-10T03:45:53.151Z,99.90
2019-06-10T03:48:21.758Z,99.90
2019-06-10T03:50:52.324Z,99.90
2019-06-10T03:53:21.278Z,99.90
2019-06-10T03:55:49.356Z,99.90
2019-06-10T03:58:17.459Z,99.90
2019-06-10T04:00:45.185Z,99.90
2019-06-10T04:03:12.808Z,99.90
2019-06-10T04:05:42.303Z,99.90
2019-06-10T04:08:09.692Z,99.90
2019-06-10T04:10:37.301Z,99.90
2019-06-10T04:13:04.856Z,99.90
2019-06-10T04:15:32.737Z,99.90
2019-06-10T04:18:00.244Z,99.90
2019-06-10T04:20:29.446Z,99.90
2019-06-10T04:22:58.149Z,99.90
2019-06-10T04:25:28.263Z,99.90
2019-06-10T04:27:57.013Z,99.90
2019-06-10T04:30:26.433Z,99.90
2019-06-10T04:32:53.990Z,99.90
2019-06-10T04:35:23.379Z,99.90
2019-06-10T04:37:56.604Z,99.90
2019-06-10T04:40:26.029Z,99.90
2019-06-10T04:42:54.348Z,99.90
2019-06-10T04:45:23.627Z,99.90
2019-06-10T04:47:52.470Z,99.90
2019-06-10T04:50:27.072Z,99.90
2019-06-10T04:52:49.756Z,99.90
2019-06-10T04:55:18.808Z,99.90
2019-06-10T04:57:46.377Z,99.90
2019-06-10T05:00:16.116Z,99.90
2019-06-10T05:02:43.449Z,99.90
2019-06-10T05:05:13.053Z,99.90
2019-06-10T05:07:42.797Z,99.90
2019-06-10T05:10:12.354Z,99.90
2019-06-10T05:12:39.571Z,99.90
2019-06-10T05:15:07.526Z,99.90
2019-06-10T05:17:35.308Z,99.90
2019-06-10T05:20:06.221Z,99.90
2019-06-10T05:22:33.776Z,99.90
2019-06-10T05:25:02.657Z,99.90
2019-06-10T05:27:32.918Z,99.90
2019-06-10T05:30:02.294Z,99.90
2019-06-10T05:32:30.487Z,99.90
2019-06-10T05:34:58.741Z,99.90
2019-06-10T05:37:26.714Z,99.90
2019-06-10T05:39:55.313Z,99.90
2019-06-10T05:42:24.896Z,99.90
2019-06-10T05:44:52.561Z,99.90
2019-06-10T05:47:23.362Z,99.90
2019-06-10T05:49:50.083Z,99.90
2019-06-10T05:52:17.394Z,99.90
2019-06-10T05:54:44.921Z,99.90
2019-06-10T05:57:12.511Z,99.90
2019-06-10T05:59:39.972Z,99.90
2019-06-10T06:02:07.842Z,99.90
2019-06-10T06:04:36.111Z,99.90
2019-06-10T06:07:03.829Z,99.90
2019-06-10T06:09:33.605Z,99.70
2019-06-10T06:12:02.512Z,99.50
2019-06-10T06:14:31.637Z,99.50
2019-06-10T06:17:02.102Z,99.20
2019-06-10T06:19:30.173Z,99.00
2019-06-10T06:21:58.146Z,98.80
2019-06-10T06:24:25.589Z,98.50
2019-06-10T06:26:53.497Z,98.20
2019-06-10T06:29:22.248Z,97.70
2019-06-10T06:31:52.395Z,96.90
2019-06-10T06:34:19.327Z,96.80
2019-06-10T06:36:46.759Z,97.20
2019-06-10T06:39:14.082Z,97.00
2019-06-10T06:41:42.753Z,96.90
2019-06-10T06:44:12.736Z,96.10
2019-06-10T06:46:39.817Z,95.60
2019-06-10T06:49:07.304Z,96.00
2019-06-10T06:51:47.697Z,95.90
2019-06-10T06:54:04.441Z,95.30
2019-06-10T06:56:35.624Z,95.10
2019-06-10T06:59:02.502Z,95.00
2019-06-10T07:01:32.959Z,94.50
2019-06-10T07:03:59.492Z,94.40
2019-06-10T07:06:27.111Z,93.50
2019-06-10T07:09:04.100Z,93.60
2019-06-10T07:11:25.880Z,94.00
2019-06-10T07:13:54.491Z,92.70
2019-06-10T07:16:23.014Z,91.80
2019-06-10T07:18:53.692Z,91.80
2019-06-10T07:21:22.578Z,92.20
2019-06-10T07:23:52.605Z,91.10
2019-06-10T07:26:22.014Z,91.10
2019-06-10T07:28:48.868Z,90.70
2019-06-10T07:31:23.824Z,90.90
2019-06-10T07:33:47.311Z,90.00
2019-06-10T07:36:14.818Z,88.60
2019-06-10T07:38:47.027Z,87.20
2019-06-10T07:41:12.567Z,87.10
2019-06-10T07:43:44.225Z,87.60
2019-06-10T07:46:09.297Z,87.30
2019-06-10T07:48:38.558Z,86.20
2019-06-10T07:51:06.599Z,84.80
2019-06-10T07:53:36.316Z,83.70
2019-06-10T07:56:04.179Z,84.20
2019-06-10T07:58:34.612Z,82.70
2019-06-10T08:01:02.664Z,81.50
2019-06-10T08:03:32.602Z,81.30
2019-06-10T08:06:03.337Z,81.80
2019-06-10T08:08:32.950Z,80.40
2019-06-10T08:11:03.075Z,79.60
2019-06-10T08:13:32.081Z,76.80
2019-06-10T08:15:58.834Z,75.70
2019-06-10T08:18:26.518Z,76.00
2019-06-10T08:20:53.954Z,74.80
2019-06-10T08:23:23.626Z,73.40
2019-06-10T08:25:54.545Z,73.60
2019-06-10T08:28:23.008Z,74.70
2019-06-10T08:30:53.168Z,74.20
2019-06-10T08:33:22.780Z,71.90
2019-06-10T08:35:57.313Z,70.40
2019-06-10T08:38:19.938Z,70.70
2019-06-10T08:40:48.532Z,71.30
2019-06-10T08:43:16.783Z,70.00
2019-06-10T08:45:47.032Z,68.10
2019-06-10T08:48:14.933Z,65.00
2019-06-10T08:50:46.622Z,64.30
2019-06-10T08:53:15.545Z,63.70
2019-06-10T08:55:44.371Z,62.50
2019-06-10T08:58:12.821Z,61.00
2019-06-10T09:00:43.426Z,59.50
2019-06-10T09:03:09.561Z,58.80
2019-06-10T09:05:38.710Z,58.10
2019-06-10T09:08:07.825Z,57.20
2019-06-10T09:10:35.154Z,56.40
2019-06-10T09:13:02.883Z,54.00
2019-06-10T09:15:32.516Z,54.30
2019-06-10T09:18:02.472Z,53.20
2019-06-10T09:20:29.105Z,52.10
2019-06-10T09:23:16.807Z,50.80
2019-06-10T09:25:26.078Z,50.70
2019-06-10T09:27:54.752Z,49.40
2019-06-10T09:30:23.361Z,47.10
2019-06-10T09:32:53.691Z,45.10
2019-06-10T09:35:23.388Z,43.50
2019-06-10T09:37:51.742Z,42.40
2019-06-10T09:40:19.479Z,42.60
2019-06-10T09:42:49.721Z,42.50
2019-06-10T09:45:17.743Z,42.70
2019-06-10T09:47:49.234Z,42.40
2019-06-10T09:50:22.719Z,41.00
2019-06-10T09:52:53.380Z,40.20
2019-06-10T09:55:29.975Z,39.30
2019-06-10T09:57:59.945Z,39.10
2019-06-10T10:00:45.298Z,38.40
2019-06-10T10:03:12.389Z,38.40
2019-06-10T10:05:51.923Z,38.10
2019-06-10T10:08:12.529Z,36.30
2019-06-10T10:10:41.642Z,37.00
2019-06-10T10:13:10.251Z,37.40
2019-06-10T10:15:38.042Z,36.30
2019-06-10T10:18:07.987Z,35.10
2019-06-10T10:20:35.581Z,36.10
2019-06-10T10:23:03.572Z,35.20
2019-06-10T10:25:33.272Z,34.80
2019-06-10T10:28:03.189Z,35.80
2019-06-10T10:30:33.052Z,35.90
2019-06-10T10:33:02.496Z,36.00
2019-06-10T10:35:29.141Z,35.70
2019-06-10T10:37:56.974Z,35.60
2019-06-10T10:40:26.110Z,35.20
2019-06-10T10:43:25.234Z,35.20
2019-06-10T10:45:47.321Z,34.80
2019-06-10T10:48:14.063Z,33.90
2019-06-10T10:50:43.531Z,35.30
2019-06-10T10:53:12.826Z,34.90
2019-06-10T10:55:42.528Z,35.60
2019-06-10T10:58:12.720Z,35.00
2019-06-10T11:00:46.832Z,34.80
2019-06-10T11:03:14.318Z,34.30
2019-06-10T11:05:44.710Z,34.70
2019-06-10T11:08:13.523Z,35.20
2019-06-10T11:10:43.409Z,35.70
2019-06-10T11:13:12.314Z,35.20
2019-06-10T11:15:39.753Z,35.80
2019-06-10T11:18:07.811Z,36.90
2019-06-10T11:20:35.520Z,36.60
2019-06-10T11:23:03.404Z,37.30
2019-06-10T11:25:33.045Z,38.60
2019-06-10T11:28:03.380Z,38.90
2019-06-10T11:30:32.245Z,39.40
2019-06-10T11:32:59.694Z,39.70
2019-06-10T11:35:27.161Z,40.50
2019-06-10T11:37:56.688Z,40.30
2019-06-10T11:40:24.695Z,40.70
2019-06-10T11:42:56.367Z,41.00
2019-06-10T11:45:22.872Z,41.50
2019-06-10T11:47:51.656Z,42.00
2019-06-10T11:50:23.205Z,43.50
2019-06-10T11:52:56.612Z,43.60
2019-06-10T11:55:23.072Z,44.00
2019-06-10T11:57:49.820Z,44.60
2019-06-10T12:00:18.625Z,46.00
2019-06-10T12:02:48.602Z,45.80
2019-06-10T12:05:20.283Z,46.00
2019-06-10T12:07:46.729Z,46.30
2019-06-10T12:10:14.926Z,47.40
2019-06-10T12:12:43.312Z,46.30
2019-06-10T12:15:14.927Z,45.90
2019-06-10T12:17:50.572Z,46.40
2019-06-10T12:20:13.251Z,47.30
2019-06-10T12:22:42.398Z,48.30
2019-06-10T12:25:31.449Z,49.80
2019-06-10T12:27:40.050Z,48.80
2019-06-10T12:30:09.440Z,49.50
2019-06-10T12:32:36.942Z,49.40
2019-06-10T12:35:05.764Z,48.90
2019-06-10T12:37:33.834Z,47.90
2019-06-10T12:40:05.663Z,48.40
2019-06-10T12:42:32.791Z,48.50
2019-06-10T12:45:04.000Z,48.40
2019-06-10T12:47:29.818Z,48.70
2019-06-10T12:49:57.568Z,48.50
2019-06-10T12:52:26.245Z,48.70
2019-06-10T12:54:55.599Z,49.00
2019-06-10T12:57:23.162Z,48.10
2019-06-10T12:59:52.232Z,49.70
2019-06-10T13:02:24.460Z,49.30
2019-06-10T13:04:52.091Z,49.60
2019-06-10T13:07:22.716Z,50.50
2019-06-10T13:09:55.339Z,49.70
2019-06-10T13:12:23.187Z,48.80
2019-06-10T13:14:52.125Z,48.60
2019-06-10T13:17:19.721Z,48.90
2019-06-10T13:19:47.129Z,49.10
2019-06-10T13:22:14.442Z,46.90
2019-06-10T13:24:42.352Z,48.30
2019-06-10T13:27:10.950Z,47.90
2019-06-10T13:29:38.685Z,48.30
2019-06-10T13:32:07.887Z,47.40
2019-06-10T13:34:35.561Z,48.30
2019-06-10T13:37:05.037Z,49.00
2019-06-10T13:39:33.029Z,47.80
2019-06-10T13:42:05.016Z,48.10
2019-06-10T13:44:32.161Z,48.80
2019-06-10T13:47:22.529Z,49.40
2019-06-10T13:49:53.114Z,49.40
2019-06-10T13:52:20.252Z,49.30
2019-06-10T13:54:48.415Z,48.80
2019-06-10T13:57:16.409Z,49.20
2019-06-10T13:59:46.408Z,49.30
2019-06-10T14:02:14.030Z,48.90
2019-06-10T14:04:42.372Z,49.00
2019-06-10T14:07:14.505Z,49.50
2019-06-10T14:09:39.205Z,49.00
2019-06-10T14:12:08.023Z,48.90
2019-06-10T14:14:35.518Z,49.10
2019-06-10T14:17:05.509Z,50.00
2019-06-10T14:19:33.465Z,49.80
2019-06-10T14:22:02.420Z,50.00
2019-06-10T14:24:32.823Z,51.10
2019-06-10T14:27:00.246Z,51.60
2019-06-10T14:29:28.297Z,50.80
2019-06-10T14:31:55.842Z,50.40
2019-06-10T14:34:24.067Z,49.70
2019-06-10T14:36:52.480Z,49.40
2019-06-10T14:39:22.147Z,50.00
2019-06-10T14:41:52.140Z,50.40
2019-06-10T14:44:19.048Z,51.00
2019-06-10T14:46:46.592Z,51.50
2019-06-10T14:49:15.662Z,50.90
2019-06-10T14:51:43.296Z,51.10
2019-06-10T14:54:12.111Z,51.40
2019-06-10T14:56:50.773Z,51.60
2019-06-10T14:59:12.111Z,51.10
2019-06-10T15:01:39.459Z,51.50
2019-06-10T15:04:07.848Z,52.10
2019-06-10T15:06:35.509Z,51.70
2019-06-10T15:09:05.210Z,52.20
2019-06-10T15:11:34.303Z,51.90
2019-06-10T15:14:03.389Z,52.30
2019-06-10T15:16:33.447Z,52.60
2019-06-10T15:19:12.019Z,52.30
2019-06-10T15:21:29.443Z,52.60
2019-06-10T15:23:56.976Z,53.00
2019-06-10T15:26:24.395Z,53.40
2019-06-10T15:28:52.992Z,54.00
2019-06-10T15:31:20.624Z,53.90
2019-06-10T15:33:48.118Z,53.20
2019-06-10T15:36:15.759Z,53.00
2019-06-10T15:39:16.765Z,53.40
2019-06-10T15:41:44.165Z,53.60
2019-06-10T15:44:14.633Z,54.80
2019-06-10T15:46:43.015Z,54.80
2019-06-10T15:49:14.579Z,54.60
2019-06-10T15:51:40.160Z,55.30
2019-06-10T15:54:07.779Z,55.40
2019-06-10T15:56:45.708Z,55.30
2019-06-10T15:59:04.852Z,55.00
2019-06-10T16:01:32.727Z,54.90
2019-06-10T16:04:00.269Z,54.80
2019-06-10T16:06:27.678Z,55.30
2019-06-10T16:08:55.065Z,55.80
2019-06-10T16:11:26.462Z,56.50
2019-06-10T16:13:53.373Z,56.30
2019-06-10T16:16:21.080Z,57.00
2019-06-10T16:18:48.561Z,56.30
2019-06-10T16:21:17.427Z,56.50
2019-06-10T16:23:45.447Z,56.60
2019-06-10T16:26:14.462Z,56.60
2019-06-10T16:28:42.812Z,56.90
2019-06-10T16:31:12.930Z,57.60
2019-06-10T16:33:39.468Z,57.70
2019-06-10T16:36:07.038Z,58.20
2019-06-10T16:38:34.335Z,59.10
2019-06-10T16:41:03.587Z,59.70
2019-06-10T16:43:33.230Z,60.40
2019-06-10T16:46:00.284Z,60.90
2019-06-10T16:48:27.621Z,61.30
2019-06-10T16:50:55.015Z,61.10
2019-06-10T16:53:28.145Z,61.20
2019-06-10T16:55:52.917Z,61.90
2019-06-10T16:58:23.615Z,63.10
2019-06-10T17:00:49.930Z,62.80
2019-06-10T17:03:18.361Z,63.20
2019-06-10T17:05:46.420Z,63.80
2019-06-10T17:08:14.973Z,64.00
2019-06-10T17:10:43.518Z,63.90
2019-06-10T17:13:13.333Z,64.70
2019-06-10T17:15:42.349Z,64.70
2019-06-10T17:18:10.085Z,64.90
2019-06-10T17:20:37.974Z,65.20
2019-06-10T17:23:21.836Z,65.40
2019-06-10T17:25:53.416Z,66.00
2019-06-10T17:28:25.646Z,65.90
2019-06-10T17:30:53.017Z,66.20
2019-06-10T17:33:22.850Z,67.30
2019-06-10T17:35:52.299Z,66.90
2019-06-10T17:38:20.571Z,67.40
2019-06-10T17:40:48.041Z,67.80
2019-06-10T17:43:15.629Z,67.90
2019-06-10T17:45:43.189Z,68.10
2019-06-10T17:48:12.838Z,68.50
2019-06-10T17:50:39.930Z,69.00
2019-06-10T17:53:07.406Z,69.30
2019-06-10T17:55:35.724Z,69.40
2019-06-10T17:58:04.120Z,69.80
2019-06-10T18:00:36.069Z,70.30
2019-06-10T18:03:03.792Z,70.30
2019-06-10T18:05:33.545Z,70.30
2019-06-10T18:08:02.387Z,70.40
2019-06-10T18:10:34.449Z,70.70
2019-06-10T18:13:13.281Z,71.00
2019-06-10T18:15:36.850Z,71.50
2019-06-10T18:18:05.604Z,71.80
2019-06-10T18:20:36.960Z,72.30
2019-06-10T18:23:05.577Z,72.60
2019-06-10T18:25:35.071Z,73.20
2019-06-10T18:28:02.881Z,73.70
2019-06-10T18:30:35.583Z,74.10
2019-06-10T18:33:02.756Z,74.60
2019-06-10T18:35:33.120Z,75.30
2019-06-10T18:38:02.196Z,75.80
2019-06-10T18:40:29.664Z,76.60
2019-06-10T18:42:57.077Z,77.10
2019-06-10T18:45:24.859Z,77.70
2019-06-10T18:47:53.060Z,78.30
2019-06-10T18:50:25.859Z,79.00
2019-06-10T18:52:54.193Z,79.80
2019-06-10T18:55:23.045Z,80.10
2019-06-10T18:57:52.985Z,80.80
2019-06-10T19:00:22.930Z,81.50
2019-06-10T19:03:03.900Z,82.20
2019-06-10T19:05:22.429Z,82.70
2019-06-10T19:07:52.921Z,83.00
2019-06-10T19:10:23.044Z,83.40
2019-06-10T19:12:52.995Z,83.80
2019-06-10T19:15:20.349Z,84.50
2019-06-10T19:17:47.728Z,85.00
2019-06-10T19:20:18.023Z,85.30
2019-06-10T19:22:45.718Z,85.80
2019-06-10T19:25:13.542Z,86.20
2019-06-10T19:27:44.245Z,86.80
2019-06-10T19:30:13.011Z,87.40
2019-06-10T19:32:44.163Z,88.60
2019-06-10T19:35:13.086Z,88.70
2019-06-10T19:37:42.199Z,89.40
2019-06-10T19:40:12.378Z,90.00
2019-06-10T19:42:40.264Z,90.20
2019-06-10T19:45:09.407Z,90.50
2019-06-10T19:47:38.018Z,90.80
2019-06-10T19:50:06.614Z,91.20
2019-06-10T19:52:35.215Z,91.30
2019-06-10T19:55:06.978Z,91.30
2019-06-10T19:57:34.353Z,91.50
2019-06-10T20:00:11.499Z,91.70
2019-06-10T20:02:34.570Z,91.80
2019-06-10T20:05:02.587Z,92.00
2019-06-10T20:07:30.331Z,92.30
2019-06-10T20:09:57.710Z,92.40
2019-06-10T20:12:25.297Z,92.70
2019-06-10T20:14:52.997Z,92.90
2019-06-10T20:17:22.736Z,93.00
2019-06-10T20:19:49.712Z,93.00
2019-06-10T20:22:17.268Z,93.20
2019-06-10T20:24:46.639Z,93.30
2019-06-10T20:27:14.237Z,93.50
2019-06-10T20:29:43.022Z,93.60
2019-06-10T20:32:10.852Z,93.80
2019-06-10T20:34:41.322Z,93.90
2019-06-10T20:37:09.096Z,94.20
2019-06-10T20:39:37.870Z,94.50
2019-06-10T20:42:05.422Z,94.70
2019-06-10T20:44:32.764Z,94.90
2019-06-10T20:47:00.125Z,95.00
2019-06-10T20:49:27.481Z,95.40
2019-06-10T20:52:09.968Z,95.50
2019-06-10T20:54:24.524Z,95.70
2019-06-10T20:56:53.440Z,95.90
2019-06-10T20:59:25.442Z,96.20
2019-06-10T21:01:53.416Z,96.40
2019-06-10T21:04:22.069Z,96.60
2019-06-10T21:06:52.984Z,97.00
2019-06-10T21:09:22.525Z,97.20
2019-06-10T21:11:51.311Z,97.70
2019-06-10T21:14:19.349Z,98.10
2019-06-10T21:16:46.698Z,98.50
2019-06-10T21:19:14.205Z,98.80
2019-06-10T21:21:45.091Z,99.10
2019-06-10T21:24:12.662Z,99.40
2019-06-10T21:26:41.106Z,99.50
2019-06-10T21:29:09.614Z,99.70
2019-06-10T21:31:36.979Z,99.80
2019-06-10T21:34:04.503Z,99.80
2019-06-10T21:36:32.228Z,99.90
2019-06-10T21:39:02.556Z,99.90
2019-06-10T21:41:30.240Z,99.90
2019-06-10T21:43:59.602Z,99.90
2019-06-10T21:46:27.105Z,99.90
2019-06-10T21:48:55.905Z,99.90
2019-06-10T21:51:24.815Z,99.90
2019-06-10T21:53:55.238Z,99.90
2019-06-10T21:56:22.811Z,99.90
2019-06-10T21:58:53.571Z,99.90
2019-06-10T22:01:22.244Z,99.90
2019-06-10T22:03:53.191Z,99.90
2019-06-10T22:06:18.764Z,99.90
2019-06-10T22:08:47.708Z,99.90
2019-06-10T22:11:15.747Z,99.90
2019-06-10T22:13:44.097Z,99.90
2019-06-10T22:16:12.002Z,99.90
2019-06-10T22:18:39.921Z,99.90
2019-06-10T22:21:07.851Z,99.90
2019-06-10T22:23:35.578Z,99.90
2019-06-10T22:26:03.442Z,99.90
2019-06-10T22:28:32.827Z,99.90
2019-06-10T22:31:17.975Z,99.90
2019-06-10T22:33:30.312Z,99.90
2019-06-10T22:35:58.172Z,99.90
2019-06-10T22:38:27.074Z,99.90
2019-06-10T22:40:56.916Z,99.90
2019-06-10T22:43:24.960Z,99.90
2019-06-10T22:45:55.503Z,99.90
2019-06-10T22:48:23.956Z,99.90
2019-06-10T22:50:51.797Z,99.90
2019-06-10T22:53:19.674Z,99.90
2019-06-10T22:55:48.382Z,99.90
2019-06-10T22:58:16.383Z,99.90
2019-06-10T23:00:44.351Z,99.90
2019-06-10T23:03:13.028Z,99.90
2019-06-10T23:05:43.429Z,99.90
2019-06-10T23:08:12.608Z,99.90
2019-06-10T23:10:42.655Z,99.90
2019-06-10T23:13:12.788Z,99.90
2019-06-10T23:18:35.292Z,99.90
2019-06-10T23:21:04.456Z,99.90
2019-06-10T23:23:32.694Z,99.90
2019-06-10T23:26:02.781Z,99.90
2019-06-10T23:28:32.565Z,99.90
2019-06-10T23:31:00.579Z,99.90
2019-06-10T23:33:29.454Z,99.90
2019-06-10T23:35:58.623Z,99.90
2019-06-10T23:38:26.711Z,99.90
2019-06-10T23:40:54.800Z,99.90
2019-06-10T23:43:22.811Z,99.90
2019-06-10T23:45:51.160Z,99.90
2019-06-10T23:48:18.981Z,99.90
2019-06-10T23:50:46.775Z,99.90
2019-06-10T23:53:14.615Z,99.90
2019-06-10T23:55:42.878Z,99.90
2019-06-10T23:58:12.916Z,99.90
